Time;durP1;ratioP1;P1;durP2;ratioP2;P2;SDS_P1;SDS_P2;PMS_P1;PMS_P2;Temp;Humidity;BMP_temperature;BMP_pressure;BME280_temperature;BME280_humidity;BME280_pressure;Samples;Min_cycle;Max_cycle;Signal;HPM_P1;HPM_P2
2022/03/03 00:01:04;;;;;;;;;;;0.00;99.90;;;-0.93;100.00;97443.09;5000713;28;19972;-85
2022/03/03 00:03:30;;;;;;;;;;;-0.10;99.90;;;-1.12;100.00;97405.81;5002860;28;19920;-85
2022/03/03 00:05:55;;;;;;;;;;;0.00;99.90;;;-1.13;100.00;97403.19;5016875;28;19928;-86
2022/03/03 00:08:21;;;;;;;;;;;-0.10;99.90;;;-1.16;100.00;97417.84;5020236;28;19928;-84
2022/03/03 00:10:47;;;;;;;;;;;-0.10;99.90;;;-1.02;100.00;97430.06;5041489;28;19943;-87
2022/03/03 00:13:12;;;;;;;;;;;0.00;99.90;;;-0.84;100.00;97447.50;5031734;28;19928;-86
2022/03/03 00:15:38;;;;;;;;;;;0.00;99.90;;;-0.93;100.00;97435.34;5026229;28;20385;-84
2022/03/03 00:18:03;;;;;;;;;;;0.00;99.90;;;-0.99;100.00;97422.31;5007915;28;19976;-83
2022/03/03 00:20:29;;;;;;;;;;;0.00;99.90;;;-1.00;100.00;97420.59;5025792;28;21513;-84
2022/03/03 00:22:55;;;;;;;;;;;0.00;99.90;;;-0.92;100.00;97431.00;5008886;28;19913;-85
2022/03/03 00:25:22;;;;;;;;;;;0.00;99.90;;;-1.05;100.00;97415.38;5025572;28;19916;-84
2022/03/03 00:27:48;;;;;;;;;;;0.00;99.90;;;-1.26;100.00;97377.19;5024192;28;19952;-84
2022/03/03 00:30:14;;;;;;;;;;;0.00;99.90;;;-1.07;100.00;97422.25;5007154;28;19963;-85
2022/03/03 00:32:40;;;;;;;;;;;0.00;99.90;;;-1.12;100.00;97426.50;5025189;28;20450;-84
2022/03/03 00:35:08;;;;;;;;;;;-0.10;99.90;;;-1.11;100.00;97423.09;5006165;28;19928;-85
2022/03/03 00:37:34;;;;;;;;;;;-0.20;99.90;;;-1.35;100.00;97396.13;5004321;28;20194;-85
2022/03/03 00:39:59;;;;;;;;;;;-0.20;99.90;;;-1.16;100.00;97428.19;5006526;28;19921;-84
2022/03/03 00:42:25;;;;;;;;;;;-0.20;99.90;;;-1.27;100.00;97422.06;5011251;28;20290;-85
2022/03/03 00:44:50;;;;;;;;;;;-0.20;99.90;;;-1.12;100.00;97430.84;5006013;28;19917;-85
2022/03/03 00:47:16;;;;;;;;;;;-0.20;99.90;;;-1.10;100.00;97439.47;5005291;28;19924;-86
2022/03/03 00:49:42;;;;;;;;;;;-0.20;99.90;;;-1.26;100.00;97408.25;5023139;28;19941;-84
2022/03/03 00:52:07;;;;;;;;;;;-0.20;99.90;;;-1.23;100.00;97405.69;5024444;28;19921;-84
2022/03/03 00:54:33;;;;;;;;;;;-0.20;99.90;;;-1.09;100.00;97426.56;5024081;28;19913;-84
2022/03/03 00:56:59;;;;;;;;;;;-0.20;99.90;;;-1.10;100.00;97440.31;5013190;28;19921;-84
2022/03/03 00:59:24;;;;;;;;;;;-0.20;99.90;;;-1.42;100.00;97389.16;4996130;28;19921;-83
2022/03/03 01:01:50;;;;;;;;;;;-0.20;99.90;;;-1.26;100.00;97422.91;5032813;28;20418;-85
2022/03/03 01:04:16;;;;;;;;;;;-0.20;99.90;;;-1.19;99.75;97415.22;5006853;28;19976;-85
2022/03/03 01:06:41;;;;;;;;;;;-0.20;99.90;;;-1.22;99.33;97419.50;5021011;28;20321;-84
2022/03/03 01:09:07;;;;;;;;;;;-0.20;99.90;;;-1.25;98.84;97420.34;5022354;28;20002;-84
2022/03/03 01:11:33;;;;;;;;;;;-0.20;99.90;;;-1.23;98.05;97418.66;5021861;28;20402;-84
2022/03/03 01:13:58;;;;;;;;;;;-0.20;99.90;;;-1.10;98.20;97440.31;5025980;28;20374;-85
2022/03/03 01:16:24;;;;;;;;;;;-0.20;99.90;;;-1.12;98.56;97452.38;5023681;28;20538;-84
2022/03/03 01:18:50;;;;;;;;;;;-0.30;99.90;;;-1.20;98.46;97448.88;5021378;28;20160;-83
2022/03/03 01:21:15;;;;;;;;;;;-0.30;99.90;;;-1.24;98.08;97442.81;5029593;28;20093;-86
2022/03/03 01:23:41;;;;;;;;;;;-0.30;99.90;;;-1.21;98.23;97450.56;5029567;28;20310;-84
2022/03/03 01:26:07;;;;;;;;;;;-0.30;99.90;;;-1.36;99.05;97429.72;5005996;28;19920;-83
2022/03/03 01:28:33;;;;;;;;;;;-0.40;99.90;;;-1.61;99.61;97393.25;5009093;28;20379;-84
2022/03/03 01:30:58;;;;;;;;;;;-0.40;99.90;;;-1.33;99.40;97431.47;5007858;28;20007;-84
2022/03/03 01:33:24;;;;;;;;;;;-0.40;99.90;;;-1.42;99.35;97417.59;5000404;28;20457;-84
2022/03/03 01:35:50;;;;;;;;;;;-0.50;99.90;;;-1.42;99.88;97407.25;5017832;28;20398;-84
2022/03/03 01:38:15;;;;;;;;;;;-0.50;99.90;;;-1.51;100.00;97395.94;5012467;28;19917;-83
2022/03/03 01:40:41;;;;;;;;;;;-0.50;99.90;;;-1.58;100.00;97374.28;5005773;28;20338;-85
2022/03/03 01:43:07;;;;;;;;;;;-0.60;99.90;;;-1.60;100.00;97373.41;5024984;28;19909;-84
2022/03/03 01:45:33;;;;;;;;;;;-0.60;99.90;;;-1.56;100.00;97390.72;5003907;28;20011;-83
2022/03/03 01:47:58;;;;;;;;;;;-0.60;99.90;;;-1.53;100.00;97395.91;5010457;28;19960;-83
2022/03/03 01:50:24;;;;;;;;;;;-0.60;99.90;;;-1.62;100.00;97385.47;5002453;28;19951;-84
2022/03/03 01:52:50;;;;;;;;;;;-0.60;99.90;;;-1.81;100.00;97362.00;4985233;28;19913;-85
2022/03/03 01:55:16;;;;;;;;;;;-0.60;99.90;;;-1.70;100.00;97387.13;5022542;28;19924;-83
2022/03/03 01:57:41;;;;;;;;;;;-0.70;99.90;;;-1.92;100.00;97358.41;5025392;28;19925;-85
2022/03/03 02:00:08;;;;;;;;;;;-0.70;99.90;;;-1.77;100.00;97393.94;5002829;28;21771;-84
2022/03/03 02:02:34;;;;;;;;;;;-0.80;99.90;;;-1.76;100.00;97400.81;4997541;28;20775;-86
2022/03/03 02:04:59;;;;;;;;;;;-0.80;99.90;;;-1.83;100.00;97397.31;5001885;28;19921;-83
2022/03/03 02:07:25;;;;;;;;;;;-0.90;99.90;;;-1.84;100.00;97389.53;5018300;28;20015;-83
2022/03/03 02:09:51;;;;;;;;;;;-0.90;99.90;;;-2.03;100.00;97349.66;5004566;28;19959;-84
2022/03/03 02:12:16;;;;;;;;;;;-0.90;99.90;;;-1.69;100.00;97384.53;5004389;28;19917;-86
2022/03/03 02:14:44;;;;;;;;;;;-0.80;99.90;;;-1.55;100.00;97403.66;5025531;28;20384;-83
2022/03/03 02:17:10;;;;;;;;;;;-0.70;99.90;;;-1.73;100.00;97377.59;4999190;28;20322;-83
2022/03/03 02:19:36;;;;;;;;;;;-0.70;99.90;;;-2.08;100.00;97339.31;5002233;28;20102;-86
2022/03/03 02:22:02;;;;;;;;;;;-0.70;99.90;;;-1.81;100.00;97384.38;5022432;28;19913;-83
2022/03/03 02:24:27;;;;;;;;;;;-0.80;99.90;;;-1.89;100.00;97380.84;5020421;28;19917;-83
2022/03/03 02:26:53;;;;;;;;;;;-0.90;99.90;;;-1.89;100.00;97386.03;5008055;28;19936;-83
2022/03/03 02:29:19;;;;;;;;;;;-0.90;99.90;;;-1.98;100.00;97395.41;5007616;28;20398;-86
2022/03/03 02:31:45;;;;;;;;;;;-0.90;99.90;;;-1.93;100.00;97408.38;5030952;28;19963;-83
2022/03/03 02:34:11;;;;;;;;;;;-1.00;99.90;;;-2.26;100.00;97349.38;5019756;28;20298;-84
2022/03/03 02:36:37;;;;;;;;;;;-1.10;99.90;;;-2.07;100.00;97402.19;5007231;28;19932;-85
2022/03/03 02:39:05;;;;;;;;;;;-1.10;99.90;;;-2.35;100.00;97363.03;4985748;28;19920;-85
2022/03/03 02:41:31;;;;;;;;;;;-1.20;99.90;;;-2.11;100.00;97409.03;5014545;28;20274;-83
2022/03/03 02:43:58;;;;;;;;;;;-1.20;99.90;;;-2.15;100.00;97407.25;5045240;28;19924;-83
2022/03/03 02:46:23;;;;;;;;;;;-1.20;99.90;;;-2.13;100.00;97413.31;5018575;28;19940;-85
2022/03/03 02:48:49;;;;;;;;;;;-1.30;99.90;;;-2.31;100.00;97396.69;4994695;28;20368;-85
2022/03/03 02:51:15;;;;;;;;;;;-1.30;99.90;;;-2.18;100.00;97409.78;5027423;28;19913;-83
2022/03/03 02:53:40;;;;;;;;;;;-1.30;99.90;;;-2.46;100.00;97378.41;5026271;28;20869;-84
2022/03/03 02:56:06;;;;;;;;;;;-1.40;99.90;;;-2.28;100.00;97402.75;5025440;28;19914;-85
2022/03/03 02:58:33;;;;;;;;;;;-1.40;99.90;;;-2.43;100.00;97386.19;4994294;28;20016;-83
2022/03/03 03:00:59;;;;;;;;;;;-1.40;99.90;;;-2.33;100.00;97410.47;5025297;28;19913;-84
2022/03/03 03:03:25;;;;;;;;;;;-1.40;99.90;;;-2.56;100.00;97369.66;5029980;28;19925;-84
2022/03/03 03:05:51;;;;;;;;;;;-1.50;99.90;;;-2.38;100.00;97394.03;5026019;28;19918;-84
2022/03/03 03:08:16;;;;;;;;;;;-1.50;99.90;;;-2.49;100.00;97373.22;5009239;28;19917;-84
2022/03/03 03:10:42;;;;;;;;;;;-1.50;99.90;;;-2.38;100.00;97386.28;5008316;28;20382;-85
2022/03/03 03:13:11;;;;;;;;;;;-1.50;99.90;;;-2.57;100.00;97355.00;5009540;28;20374;-85
2022/03/03 03:15:36;;;;;;;;;;;-1.50;99.90;;;-2.57;100.00;97352.41;5010472;28;19921;-85
2022/03/03 03:18:10;;;;;;;;;;;-1.50;99.90;;;-2.40;100.00;97375.06;4991894;28;20298;-85
2022/03/03 03:20:37;;;;;;;;;;;-1.50;99.90;;;-2.60;100.00;97347.25;5016639;28;19936;-86
2022/03/03 03:23:02;;;;;;;;;;;-1.60;99.90;;;-2.51;100.00;97368.03;5025131;28;19917;-85
2022/03/03 03:25:28;;;;;;;;;;;-1.60;99.90;;;-2.70;100.00;97335.03;5017027;28;19998;-83
2022/03/03 03:27:53;;;;;;;;;;;-1.60;99.90;;;-2.51;100.00;97368.03;5014945;28;19917;-83
2022/03/03 03:30:19;;;;;;;;;;;-1.60;99.90;;;-2.69;100.00;97332.47;5015568;28;19924;-86
2022/03/03 03:32:45;;;;;;;;;;;-1.60;99.90;;;-2.69;100.00;97326.47;5008353;28;19920;-85
2022/03/03 03:35:10;;;;;;;;;;;-1.60;99.90;;;-2.53;100.00;97354.22;5002539;28;19924;-83
2022/03/03 03:37:36;;;;;;;;;;;-1.60;99.90;;;-2.50;100.00;97348.22;5032520;28;20370;-85
2022/03/03 03:40:04;;;;;;;;;;;-1.60;99.90;;;-2.54;100.00;97351.63;5029868;28;19912;-86
2022/03/03 03:42:30;;;;;;;;;;;-1.50;99.90;;;-2.72;100.00;97319.53;5024755;28;20546;-84
2022/03/03 03:44:55;;;;;;;;;;;-1.60;99.90;;;-2.51;100.00;97347.34;5026067;28;19913;-84
2022/03/03 03:47:21;;;;;;;;;;;-1.60;99.90;;;-2.51;100.00;97337.03;5020951;28;19921;-85
2022/03/03 03:49:46;;;;;;;;;;;-1.50;99.90;;;-2.50;100.00;97337.88;5021972;28;19913;-83
2022/03/03 03:52:12;;;;;;;;;;;-1.50;99.90;;;-2.54;100.00;97331.81;5005461;28;19963;-84
2022/03/03 03:54:38;;;;;;;;;;;-1.50;99.90;;;-2.78;100.00;97297.91;5005535;28;20443;-85
2022/03/03 03:57:04;;;;;;;;;;;-1.60;99.90;;;-2.52;100.00;97343.03;5021245;28;20008;-86
2022/03/03 03:59:30;;;;;;;;;;;-1.50;99.90;;;-2.51;100.00;97336.16;4988218;28;20287;-84
2022/03/03 04:01:55;;;;;;;;;;;-1.60;99.90;;;-2.57;100.00;97326.59;4987665;28;19943;-86
2022/03/03 04:04:21;;;;;;;;;;;-1.50;99.90;;;-2.62;100.00;97324.81;5006501;28;20367;-86
2022/03/03 04:06:47;;;;;;;;;;;-1.60;99.90;;;-2.63;100.00;97323.09;5019876;28;19921;-83
2022/03/03 04:09:12;;;;;;;;;;;-1.60;99.90;;;-2.61;100.00;97318.81;5001665;28;19920;-83
2022/03/03 04:11:38;;;;;;;;;;;-1.60;99.90;;;-2.77;100.00;97302.25;5021176;28;19990;-85
2022/03/03 04:14:04;;;;;;;;;;;-1.60;99.90;;;-2.69;100.00;97318.72;5023653;28;20449;-83
2022/03/03 04:16:30;;;;;;;;;;;-1.60;99.90;;;-2.61;100.00;97336.88;5022405;28;19921;-83
2022/03/03 04:18:55;;;;;;;;;;;-1.70;99.90;;;-2.63;100.00;97336.84;5029302;28;19917;-84
2022/03/03 04:21:21;;;;;;;;;;;-1.70;99.90;;;-2.78;100.00;97303.97;4988604;28;19940;-84
2022/03/03 04:23:47;;;;;;;;;;;-1.70;99.90;;;-2.76;100.00;97317.75;5014122;28;19913;-83
2022/03/03 04:26:13;;;;;;;;;;;-1.70;99.90;;;-2.78;100.00;97314.28;5006305;28;19928;-86
2022/03/03 04:28:39;;;;;;;;;;;-1.70;99.90;;;-2.91;100.00;97287.44;5007088;28;20405;-84
2022/03/03 04:31:05;;;;;;;;;;;-1.70;99.90;;;-2.82;100.00;97299.59;5012691;28;19956;-85
2022/03/03 04:33:31;;;;;;;;;;;-1.70;99.90;;;-2.73;100.00;97314.34;5020750;28;19963;-84
2022/03/03 04:35:57;;;;;;;;;;;-1.70;99.90;;;-2.69;100.00;97322.16;5003428;28;19952;-86
2022/03/03 04:38:24;;;;;;;;;;;-1.80;99.90;;;-2.88;100.00;97282.28;4998736;28;19929;-86
2022/03/03 04:40:49;;;;;;;;;;;-1.70;99.90;;;-2.91;100.00;97279.69;5007992;28;20000;-85
2022/03/03 04:43:15;;;;;;;;;;;-1.70;99.90;;;-3.32;100.00;97212.00;5005354;28;20349;-86
2022/03/03 04:45:41;;;;;;;;;;;-1.70;99.90;;;-2.68;100.00;97312.69;5003799;28;19912;-86
2022/03/03 04:48:06;;;;;;;;;;;-1.70;99.90;;;-2.81;100.00;97300.47;5022590;28;19913;-86
2022/03/03 04:50:32;;;;;;;;;;;-1.70;99.90;;;-2.91;100.00;97282.28;5014337;28;20363;-83
2022/03/03 04:52:58;;;;;;;;;;;-1.80;99.90;;;-2.82;100.00;97297.00;5004645;28;19919;-85
2022/03/03 04:55:24;;;;;;;;;;;-1.80;99.90;;;-2.85;100.00;97290.94;5003007;28;19917;-85
2022/03/03 04:57:50;;;;;;;;;;;-1.80;99.90;;;-2.87;100.00;97298.66;4999349;28;19931;-83
2022/03/03 05:00:15;;;;;;;;;;;-1.80;99.90;;;-2.88;100.00;97299.50;5018472;28;20449;-85
2022/03/03 05:02:41;;;;;;;;;;;-1.80;99.90;;;-2.99;100.00;97272.69;5005576;28;19921;-84
2022/03/03 05:05:07;;;;;;;;;;;-1.80;99.90;;;-2.79;100.00;97307.38;5016232;28;20370;-84
2022/03/03 05:07:32;;;;;;;;;;;-1.80;99.90;;;-2.92;100.00;97287.41;5020011;28;19948;-85
2022/03/03 05:09:58;;;;;;;;;;;-1.80;99.90;;;-2.89;100.00;97293.50;5045809;28;19939;-86
2022/03/03 05:12:24;;;;;;;;;;;-1.90;99.90;;;-2.98;100.00;97277.00;5012908;28;19963;-84
2022/03/03 05:14:50;;;;;;;;;;;-1.80;99.90;;;-2.94;100.00;97269.31;5024760;28;19909;-85
2022/03/03 05:17:15;;;;;;;;;;;-1.90;99.90;;;-2.74;100.00;97297.13;5006898;28;19950;-84
2022/03/03 05:19:41;;;;;;;;;;;-1.80;99.90;;;-2.75;100.00;97285.91;5028090;28;19959;-85
2022/03/03 05:22:06;;;;;;;;;;;-1.80;99.90;;;-2.92;100.00;97261.59;5003226;28;19952;-84
2022/03/03 05:24:32;;;;;;;;;;;-1.80;99.90;;;-2.90;100.00;97263.34;5008322;28;19917;-85
2022/03/03 05:26:58;;;;;;;;;;;-1.90;99.90;;;-2.86;100.00;97271.13;5008107;28;19920;-84
2022/03/03 05:29:23;;;;;;;;;;;-1.80;99.90;;;-2.98;100.00;97258.91;5025907;28;20939;-85
2022/03/03 05:31:49;;;;;;;;;;;-1.80;99.90;;;-3.10;100.00;97231.25;5014259;28;19913;-83
2022/03/03 05:34:15;;;;;;;;;;;-1.90;99.90;;;-2.86;100.00;97286.63;5004787;28;19928;-83
2022/03/03 05:36:41;;;;;;;;;;;-1.90;99.90;;;-2.90;100.00;97273.66;5003069;28;19921;-86
2022/03/03 05:39:07;;;;;;;;;;;-1.90;99.90;;;-2.94;100.00;97268.47;5006950;28;19936;-84
2022/03/03 05:41:34;;;;;;;;;;;-1.90;99.90;;;-3.07;100.00;97252.81;5008731;28;19913;-84
2022/03/03 05:44:00;;;;;;;;;;;-1.90;99.90;;;-2.82;100.00;97294.41;5001963;28;19921;-85
2022/03/03 05:46:25;;;;;;;;;;;-1.90;99.90;;;-2.82;100.00;97306.47;5025805;28;20257;-84
2022/03/03 05:48:51;;;;;;;;;;;-1.90;99.90;;;-2.93;100.00;97286.53;5006469;28;19956;-85
2022/03/03 05:51:17;;;;;;;;;;;-1.90;99.90;;;-2.89;100.00;97290.91;4998457;28;20385;-85
2022/03/03 05:53:43;;;;;;;;;;;-1.80;99.90;;;-2.79;100.00;97299.63;5024639;28;19913;-85
2022/03/03 05:56:10;;;;;;;;;;;-1.80;99.90;;;-2.95;100.00;97272.72;5025674;28;19916;-84
2022/03/03 05:58:42;;;;;;;;;;;-1.80;99.90;;;-2.75;100.00;97301.41;5024686;28;20386;-84
2022/03/03 06:01:10;;;;;;;;;;;-1.80;99.90;;;-2.86;100.00;97287.47;5016314;28;19927;-84
2022/03/03 06:03:35;;;;;;;;;;;-1.80;99.90;;;-2.85;100.00;97293.50;5020994;28;19912;-85
2022/03/03 06:06:07;;;;;;;;;;;-1.80;99.90;;;-2.76;100.00;97306.56;5008750;28;20279;-84
2022/03/03 06:08:57;;;;;;;;;;;-1.80;99.90;;;-2.85;100.00;97284.06;5019957;28;19943;-86
2022/03/03 06:11:25;;;;;;;;;;;-1.80;99.90;;;-2.94;100.00;97278.78;5024061;28;19916;-86
2022/03/03 06:13:52;;;;;;;;;;;-1.80;99.90;;;-2.76;100.00;97293.66;5024438;28;19917;-83
2022/03/03 06:16:19;;;;;;;;;;;-1.80;99.90;;;-2.82;100.00;97278.06;5022092;28;19968;-86
2022/03/03 06:18:46;;;;;;;;;;;-1.80;99.90;;;-3.03;100.00;97242.50;4992005;28;19971;-85
2022/03/03 06:21:12;;;;;;;;;;;-1.70;99.90;;;-2.67;100.00;97293.78;5007307;28;19920;-83
2022/03/03 06:23:38;;;;;;;;;;;-1.70;99.90;;;-2.71;100.00;97287.72;5003286;28;19928;-86
2022/03/03 06:26:06;;;;;;;;;;;-1.70;99.90;;;-2.86;100.00;97261.69;5022773;28;20291;-83
2022/03/03 06:28:33;;;;;;;;;;;-1.70;99.90;;;-2.59;100.00;97291.28;5001247;28;19921;-84
2022/03/03 06:30:59;;;;;;;;;;;-1.60;99.90;;;-2.61;100.00;97282.66;5002728;28;20106;-84
2022/03/03 06:33:25;;;;;;;;;;;-1.50;99.90;;;-2.65;100.00;97255.94;5002517;28;20346;-84
2022/03/03 06:35:51;;;;;;;;;;;-1.50;99.90;;;-2.60;100.00;97261.16;5003146;28;20352;-84
2022/03/03 06:38:17;;;;;;;;;;;-1.40;99.90;;;-2.61;100.00;97233.59;5001919;28;19933;-87
2022/03/03 06:40:42;;;;;;;;;;;-1.40;99.90;;;-2.44;100.00;97251.88;5021364;28;20031;-85
2022/03/03 06:43:08;;;;;;;;;;;-1.40;99.90;;;-2.34;100.00;97267.50;5005349;28;20139;-84
2022/03/03 06:45:34;;;;;;;;;;;-1.30;99.90;;;-2.23;100.00;97271.94;5024983;28;20075;-85
2022/03/03 06:48:01;;;;;;;;;;;-1.30;99.90;;;-2.31;100.00;97249.47;5005685;28;20267;-84
2022/03/03 06:50:27;;;;;;;;;;;-1.20;99.90;;;-2.12;100.00;97262.56;5007786;28;19959;-85
2022/03/03 06:52:53;;;;;;;;;;;-1.20;99.90;;;-2.12;100.00;97249.66;5004340;28;19958;-86
2022/03/03 06:55:25;;;;;;;;;;;-1.10;99.90;;;-2.23;100.00;97202.19;5027061;28;19921;-84
2022/03/03 06:57:54;;;;;;;;;;;-1.10;99.90;;;-2.02;100.00;97223.06;5005382;28;19933;-84
2022/03/03 07:00:21;;;;;;;;;;;-1.00;99.90;;;-1.90;100.00;97218.84;5003155;28;20434;-84
2022/03/03 07:02:48;;;;;;;;;;;-1.00;99.90;;;-1.99;100.00;97196.38;5004927;28;20408;-85
2022/03/03 07:05:17;;;;;;;;;;;-0.90;99.90;;;-1.85;100.00;97207.69;5004681;28;19921;-85
2022/03/03 07:07:45;;;;;;;;;;;-0.90;99.90;;;-1.85;100.00;97187.00;4985322;28;19921;-84
2022/03/03 07:10:12;;;;;;;;;;;-0.80;99.90;;;-1.79;100.00;97202.59;5002381;28;19913;-84
2022/03/03 07:12:38;;;;;;;;;;;-0.70;99.90;;;-1.66;100.00;97218.22;5020897;28;19917;-85
2022/03/03 07:15:04;;;;;;;;;;;-0.70;99.90;;;-1.56;100.00;97212.28;5002908;28;19921;-85
2022/03/03 07:17:47;;;;;;;;;;;-0.60;99.90;;;-1.35;100.00;97233.13;5019475;28;19967;-84
2022/03/03 07:20:17;;;;;;;;;;;-0.40;99.90;;;-1.16;100.00;97247.03;5019814;28;19917;-85
2022/03/03 07:22:59;;;;;;;;;;;-0.30;99.90;;;-1.06;100.00;97234.16;5001013;28;19925;-84
2022/03/03 07:25:32;;;;;;;;;;;-0.10;99.90;;;-0.99;100.00;97228.16;4998909;28;19921;-84
2022/03/03 07:28:01;;;;;;;;;;;0.10;99.90;;;-0.83;100.00;97235.16;4991954;28;20312;-84
2022/03/03 07:30:27;;;;;;;;;;;0.20;99.90;;;-1.14;100.00;97160.78;5003128;28;19917;-84
2022/03/03 07:33:08;;;;;;;;;;;0.30;99.90;;;-0.60;100.00;97231.81;5007332;28;20414;-86
2022/03/03 07:35:34;;;;;;;;;;;0.40;99.90;;;-0.55;100.00;97229.25;5003516;28;19917;-84
2022/03/03 07:38:05;;;;;;;;;;;0.40;99.90;;;-0.39;100.00;97264.72;5004860;28;19921;-86
2022/03/03 07:40:32;;;;;;;;;;;0.50;99.90;;;-0.54;99.00;97249.09;5006485;28;19912;-84
2022/03/03 07:42:58;;;;;;;;;;;0.50;99.90;;;-0.59;97.74;97228.38;5015527;28;19917;-83
2022/03/03 07:45:25;;;;;;;;;;;0.60;99.90;;;-0.51;97.60;97233.59;5018500;28;19932;-85
2022/03/03 07:47:55;;;;;;;;;;;0.60;99.90;;;-0.30;97.34;97261.31;5004219;28;19921;-84
2022/03/03 07:50:21;;;;;;;;;;;0.60;99.90;;;-0.18;97.29;97268.25;5023694;28;19924;-86
2022/03/03 07:52:49;;;;;;;;;;;0.70;99.90;;;-0.42;97.36;97218.06;5014858;28;20227;-84
2022/03/03 07:55:15;;;;;;;;;;;0.80;99.90;;;-0.10;96.93;97269.16;5025884;28;19920;-85
2022/03/03 07:57:51;;;;;;;;;;;0.80;99.90;;;-0.20;96.14;97238.03;5023174;28;19921;-86
2022/03/03 08:00:17;;;;;;;;;;;0.90;99.90;;;0.03;94.77;97251.91;5007083;28;19974;-85
2022/03/03 08:02:44;;;;;;;;;;;0.90;99.90;;;0.00;93.83;97268.34;5005099;28;19917;-84
2022/03/03 08:05:10;;;;;;;;;;;1.00;99.90;;;0.06;93.49;97275.25;5032654;23;19994;-51
2022/03/03 08:07:43;;;;;;;;;;;1.00;99.90;;;0.03;93.17;97273.50;5013210;28;20785;-53
2022/03/03 08:10:10;;;;;;;;;;;1.00;99.90;;;0.08;93.16;97266.59;5005784;28;19967;-52
2022/03/03 08:12:37;;;;;;;;;;;1.00;99.90;;;0.16;93.49;97262.31;4997291;28;20156;-51
2022/03/03 08:15:03;;;;;;;;;;;1.10;99.90;;;0.14;93.43;97245.00;4997158;28;22186;-51
2022/03/03 08:17:32;;;;;;;;;;;1.10;99.90;;;0.34;92.86;97261.47;4994600;28;19968;-50
2022/03/03 08:20:04;;;;;;;;;;;1.20;99.90;;;0.48;92.39;97256.28;4997908;28;20541;-53
2022/03/03 08:22:30;;;;;;;;;;;1.30;99.90;;;0.59;92.25;97258.03;4988998;28;20397;-52
2022/03/03 08:24:57;;;;;;;;;;;1.40;99.90;;;0.67;91.78;97256.31;4974101;28;19917;-53
2022/03/03 08:27:25;;;;;;;;;;;1.50;99.90;;;0.86;89.92;97255.44;4992322;28;20387;-49
2022/03/03 08:29:51;;;;;;;;;;;1.70;99.90;;;1.04;88.14;97259.75;4997509;28;19914;-49
2022/03/03 08:32:18;;;;;;;;;;;1.90;99.90;;;1.17;88.07;97254.50;4993111;28;19963;-52
2022/03/03 08:34:57;;;;;;;;;;;2.00;99.90;;;1.26;87.90;97255.34;4988853;28;20428;-51
2022/03/03 08:37:35;;;;;;;;;;;2.20;99.90;;;1.34;87.20;97244.94;4968558;28;19926;-52
2022/03/03 08:40:01;;;;;;;;;;;2.20;99.90;;;1.50;86.17;97262.19;4990973;28;19921;-52
2022/03/03 08:42:34;;;;;;;;;;;2.30;99.90;;;1.50;86.02;97266.53;4987822;28;20295;-51
2022/03/03 08:45:04;;;;;;;;;;;2.40;99.90;;;1.59;85.95;97263.91;4995676;28;20477;-51
2022/03/03 08:47:30;;;;;;;;;;;2.40;99.90;;;1.77;84.42;97260.38;4998005;28;19921;-54
2022/03/03 08:50:13;;;;;;;;;;;2.50;99.90;;;1.83;82.00;97265.56;4995240;28;19984;-51
2022/03/03 08:52:43;;;;;;;;;;;2.60;99.90;;;1.74;79.88;97231.78;4989881;28;19925;-48
2022/03/03 08:55:10;;;;;;;;;;;2.70;99.90;;;1.88;79.23;97263.81;4989099;28;19925;-53
2022/03/03 08:57:37;;;;;;;;;;;2.70;99.90;;;1.95;78.38;97275.03;4995377;28;19921;-52
2022/03/03 09:00:08;;;;;;;;;;;2.80;99.90;;;1.99;77.35;97268.97;4990932;28;19924;-51
2022/03/03 09:02:34;;;;;;;;;;;2.90;99.90;;;2.06;77.80;97272.38;4984722;28;19928;-48
2022/03/03 09:05:00;;;;;;;;;;;2.90;99.90;;;2.13;77.99;97265.41;4978442;28;20007;-48
2022/03/03 09:07:26;;;;;;;;;;;2.90;99.90;;;2.21;76.29;97274.03;4979226;28;20043;-47
2022/03/03 09:09:51;;;;;;;;;;;3.00;99.90;;;2.24;76.02;97269.69;4992764;28;20008;-49
2022/03/03 09:12:17;;;;;;;;;;;3.10;99.90;;;2.37;75.66;97267.88;4984362;28;20302;-47
2022/03/03 09:14:42;;;;;;;;;;;3.20;99.90;;;2.46;74.96;97272.16;4986207;28;19928;-51
2022/03/03 09:17:08;;;;;;;;;;;3.20;99.90;;;2.51;75.50;97259.94;4994079;28;19964;-51
2022/03/03 09:19:34;;;;;;;;;;;3.30;99.90;;;2.64;74.57;97268.56;4977282;28;19927;-49
2022/03/03 09:21:59;;;;;;;;;;;3.40;99.90;;;2.65;72.91;97270.25;4994296;28;19952;-49
2022/03/03 09:24:25;;;;;;;;;;;3.50;99.90;;;2.72;72.84;97269.34;4992327;28;19917;-50
2022/03/03 09:26:51;;;;;;;;;;;3.50;99.90;;;2.77;73.20;97274.53;4991820;28;19969;-47
2022/03/03 09:29:18;;;;;;;;;;;3.60;99.90;;;2.78;72.02;97255.41;4994529;28;20380;-52
2022/03/03 09:31:44;;;;;;;;;;;3.60;99.90;;;2.73;70.57;97232.00;4986842;28;20625;-52
2022/03/03 09:34:10;;;;;;;;;;;3.70;99.90;;;2.92;70.29;97260.50;4994958;28;19920;-53
2022/03/03 09:36:36;;;;;;;;;;;3.70;99.90;;;3.05;69.68;97273.41;4995331;28;19925;-54
2022/03/03 09:39:03;;;;;;;;;;;3.80;99.90;;;3.13;69.91;97277.69;5003299;28;19920;-48
2022/03/03 09:41:28;;;;;;;;;;;3.90;99.90;;;3.20;69.82;97288.03;5001197;28;20381;-49
2022/03/03 09:43:56;;;;;;;;;;;3.90;99.90;;;3.31;68.67;97282.72;5000627;28;19968;-47
2022/03/03 09:46:22;;;;;;;;;;;4.00;99.90;;;3.37;68.28;97268.75;4995870;28;20349;-48
2022/03/03 09:48:48;;;;;;;;;;;4.20;99.90;;;3.46;67.92;97268.63;5002027;28;19929;-50
2022/03/03 09:51:13;;;;;;;;;;;4.20;99.90;;;3.59;67.83;97269.41;5000975;28;20324;-55
2022/03/03 09:53:40;;;;;;;;;;;4.30;99.90;;;3.65;67.55;97268.47;4994617;28;19921;-49
2022/03/03 09:56:06;;;;;;;;;;;4.40;99.90;;;3.78;67.55;97264.81;4981710;28;19925;-49
2022/03/03 09:58:32;;;;;;;;;;;4.50;99.90;;;3.88;66.44;97266.44;4976211;28;20465;-50
2022/03/03 10:00:58;;;;;;;;;;;4.60;99.90;;;3.89;66.28;97259.47;5000613;28;19959;-50
2022/03/03 10:03:31;;;;;;;;;;;4.60;99.90;;;3.98;65.64;97257.63;4993349;28;19948;-48
2022/03/03 10:06:00;;;;;;;;;;;4.70;99.90;;;3.90;65.79;97263.81;4998681;28;19913;-49
2022/03/03 10:08:26;;;;;;;;;;;4.70;99.90;;;4.02;66.05;97263.66;4997900;28;19975;-51
2022/03/03 10:10:55;;;;;;;;;;;4.70;99.90;;;4.14;65.53;97263.47;4999466;28;20008;-46
2022/03/03 10:13:21;;;;;;;;;;;4.80;99.90;;;4.18;65.61;97269.50;4998996;28;19917;-53
2022/03/03 10:15:52;;;;;;;;;;;4.90;99.90;;;4.43;63.51;97263.94;5000271;28;19914;-45
2022/03/03 10:18:19;;;;;;;;;;;5.00;99.90;;;4.40;64.06;97257.03;4996155;28;19925;-50
2022/03/03 10:20:44;;;;;;;;;;;5.10;99.90;;;4.44;64.64;97260.47;5000761;28;19967;-46
2022/03/03 10:23:10;;;;;;;;;;;5.10;99.90;;;4.44;61.91;97261.31;5001698;28;20299;-51
2022/03/03 10:25:38;;;;;;;;;;;5.20;99.90;;;4.67;62.15;97268.81;4995735;28;19956;-49
2022/03/03 10:28:19;;;;;;;;;;;5.30;99.90;;;4.87;61.12;97265.88;4996716;28;19921;-48
2022/03/03 10:31:11;;;;;;;;;;;5.40;99.90;;;4.78;59.68;97260.81;5000098;28;19957;-48
2022/03/03 10:33:38;;;;;;;;;;;5.50;99.90;;;4.69;58.77;97256.56;4992991;28;19983;-54
2022/03/03 10:36:10;;;;;;;;;;;5.50;99.90;;;4.81;58.76;97255.53;4999774;28;20368;-50
2022/03/03 10:38:55;;;;;;;;;;;5.50;99.90;;;4.82;57.22;97262.47;5000694;28;19987;-48
2022/03/03 10:41:44;;;;;;;;;;;5.60;99.90;;;4.85;56.88;97264.19;5000335;28;19956;-56
2022/03/03 10:44:12;;;;;;;;;;;5.60;99.90;;;4.86;56.65;97258.91;4996884;28;19925;-49
2022/03/03 10:46:40;;;;;;;;;;;5.60;99.90;;;4.96;56.30;97257.88;4999962;28;19962;-50
2022/03/03 10:49:19;;;;;;;;;;;5.60;99.90;;;4.94;58.13;97243.97;4998013;28;19909;-51
2022/03/03 10:51:44;;;;;;;;;;;5.70;99.90;;;5.08;56.05;97253.31;4999144;28;19958;-47
2022/03/03 10:54:10;;;;;;;;;;;5.80;99.90;;;5.09;53.98;97257.66;4997644;28;19913;-49
2022/03/03 10:56:49;;;;;;;;;;;5.80;99.90;;;5.05;54.77;97242.94;4999151;28;19964;-53
2022/03/03 10:59:25;;;;;;;;;;;5.80;99.90;;;5.16;54.01;97244.44;4998782;28;20302;-47
2022/03/03 11:01:52;;;;;;;;;;;5.80;99.50;;;5.32;53.77;97244.19;4995329;28;19921;-51
2022/03/03 11:04:20;;;;;;;;;;;5.90;99.50;;;5.28;54.26;97246.00;4998171;28;19917;-51
2022/03/03 11:06:52;;;;;;;;;;;6.00;99.60;;;5.40;54.33;97242.31;4994435;28;20021;-51
2022/03/03 11:09:18;;;;;;;;;;;6.10;99.70;;;5.41;53.27;97230.09;4997488;28;20659;-47
2022/03/03 11:11:45;;;;;;;;;;;6.10;99.20;;;5.61;52.35;97230.53;4994434;28;19917;-47
2022/03/03 11:14:11;;;;;;;;;;;6.30;98.50;;;5.55;51.01;97226.28;4983739;28;19921;-50
2022/03/03 11:16:37;;;;;;;;;;;6.30;97.50;;;5.59;51.04;97218.41;4974329;28;24415;-49